Terminal Aerodrome Forecast
Issued by NWS Duluth, MN

Home | Current Version | Previous Version | Text Only | Print | Product List | Glossary On
Versions: 1 2 3 4 5 6 7 8 9 10 11 12 13 14 15 16 17 18 19 20 21 22 23 24 25 26 27 28 29
000
FTUS43 KDLH 151140
TAFDLH
TAF
KDLH 151140Z 1512/1612 31010KT 6SM -SN OVC023
      TEMPO 1512/1513 5SM -SN
     FM151600 32008KT P6SM VCSH BKN050
     FM160400 07004KT P6SM VCSH OVC035
     FM160600 10005KT 4SM -SN OVC025
     FM160900 12006KT 2SM -SN OVC010=

USA.gov is the U.S. government's official web portal to all federal, state and local government web resources and services.